createdAt,value
2023-04-29T00:02:11.015Z,9.68
2023-04-29T00:04:54.739Z,9.52
2023-04-29T00:07:38.010Z,9.40
2023-04-29T00:10:23.099Z,9.85
2023-04-29T00:13:06.265Z,9.40
2023-04-29T00:15:49.116Z,9.52
2023-04-29T00:18:32.618Z,9.88
2023-04-29T00:21:15.108Z,9.23
2023-04-29T00:23:58.033Z,9.48
2023-04-29T00:26:41.368Z,9.10
2023-04-29T00:29:25.955Z,8.93
2023-04-29T00:32:08.312Z,9.48
2023-04-29T00:34:51.656Z,9.27
2023-04-29T00:37:35.179Z,9.20
2023-04-29T00:40:17.876Z,9.25
2023-04-29T00:43:00.403Z,9.43
2023-04-29T00:45:43.760Z,9.82
2023-04-29T00:48:26.024Z,9.13
2023-04-29T00:51:09.125Z,9.82
2023-04-29T00:53:51.352Z,10.00
2023-04-29T00:56:36.837Z,8.90
2023-04-29T00:59:19.197Z,9.30
2023-04-29T01:02:04.119Z,8.93
2023-04-29T01:04:47.278Z,9.68
2023-04-29T01:07:52.469Z,8.57
2023-04-29T01:11:07.500Z,9.40
2023-04-29T01:16:52.001Z,9.50
2023-04-29T01:19:48.251Z,8.77
2023-04-29T01:22:30.549Z,9.93
2023-04-29T01:25:13.135Z,9.73
2023-04-29T01:28:22.023Z,9.38
2023-04-29T01:31:32.682Z,9.32
2023-04-29T01:34:27.504Z,9.52
2023-04-29T01:37:25.431Z,8.98
2023-04-29T01:40:16.250Z,8.70
2023-04-29T01:43:12.764Z,8.73
2023-04-29T01:46:00.748Z,9.52
2023-04-29T01:48:43.635Z,8.82
2023-04-29T01:51:25.904Z,9.05
2023-04-29T01:54:08.358Z,8.93
2023-04-29T01:56:52.048Z,9.10
2023-04-29T01:59:42.393Z,8.95
2023-04-29T02:02:47.494Z,9.00
2023-04-29T02:05:50.594Z,8.30
2023-04-29T02:08:33.141Z,8.27
2023-04-29T02:11:17.086Z,8.40
2023-04-29T02:13:59.371Z,9.00
2023-04-29T02:16:46.900Z,8.43
2023-04-29T02:19:30.185Z,8.88
2023-04-29T02:22:13.552Z,8.40
2023-04-29T02:24:57.112Z,8.00
2023-04-29T02:27:39.494Z,8.55
2023-04-29T02:30:21.713Z,8.40
2023-04-29T02:33:07.803Z,8.40
2023-04-29T02:35:51.018Z,8.20
2023-04-29T02:38:34.103Z,8.55
2023-04-29T02:41:19.984Z,8.48
2023-04-29T02:44:04.687Z,8.63
2023-04-29T02:46:47.929Z,8.55
2023-04-29T02:49:30.533Z,9.02
2023-04-29T02:52:13.693Z,9.00
2023-04-29T02:54:56.792Z,8.70
2023-04-29T02:57:39.961Z,8.57
2023-04-29T03:00:23.340Z,8.38
2023-04-29T03:03:05.859Z,9.10
2023-04-29T03:05:48.531Z,9.07
2023-04-29T03:08:31.194Z,8.88
2023-04-29T03:11:13.589Z,8.35
2023-04-29T03:13:56.662Z,8.52
2023-04-29T03:16:39.455Z,9.30
2023-04-29T03:19:22.012Z,9.18
2023-04-29T03:22:06.354Z,8.57
2023-04-29T03:24:49.142Z,9.20
2023-04-29T03:27:32.767Z,8.73
2023-04-29T03:30:15.797Z,8.85
2023-04-29T03:33:04.506Z,8.85
2023-04-29T03:35:47.628Z,8.98
2023-04-29T03:39:02.210Z,9.05
2023-04-29T03:41:47.059Z,9.90
2023-04-29T03:44:31.015Z,9.30
2023-04-29T03:47:13.910Z,9.23
2023-04-29T03:49:56.511Z,9.95
2023-04-29T03:52:39.085Z,9.15
2023-04-29T03:55:27.309Z,9.32
2023-04-29T03:58:09.864Z,9.43
2023-04-29T04:00:52.803Z,9.80
2023-04-29T04:06:22.032Z,8.85
2023-04-29T04:09:06.010Z,9.40
2023-04-29T04:11:49.607Z,9.30
2023-04-29T04:14:33.096Z,8.40
2023-04-29T04:17:15.744Z,8.82
2023-04-29T04:19:58.089Z,8.95
2023-04-29T04:22:40.983Z,8.93
2023-04-29T04:25:32.599Z,8.65
2023-04-29T04:31:31.318Z,8.75
2023-04-29T04:34:13.801Z,9.20
2023-04-29T04:36:56.261Z,8.88
2023-04-29T04:39:39.589Z,8.63
2023-04-29T04:42:23.419Z,8.77
2023-04-29T04:45:09.678Z,7.90
2023-04-29T04:48:05.325Z,8.45
2023-04-29T04:50:50.366Z,8.55
2023-04-29T04:53:32.620Z,8.82
2023-04-29T04:56:22.066Z,8.75
2023-04-29T04:59:05.038Z,8.70
2023-04-29T05:01:47.786Z,8.57
2023-04-29T05:04:30.311Z,8.43
2023-04-29T05:07:12.969Z,8.00
2023-04-29T05:10:14.742Z,9.13
2023-04-29T05:13:04.832Z,7.72
2023-04-29T05:15:47.385Z,8.55
2023-04-29T05:18:34.871Z,8.77
2023-04-29T05:21:17.843Z,8.27
2023-04-29T05:24:01.347Z,8.82
2023-04-29T05:26:44.405Z,8.98
2023-04-29T05:29:28.078Z,9.02
2023-04-29T05:32:15.283Z,9.23
2023-04-29T05:34:57.940Z,8.30
2023-04-29T05:37:40.340Z,8.18
2023-04-29T05:40:45.931Z,8.88
2023-04-29T05:43:44.017Z,8.65
2023-04-29T05:46:29.627Z,8.10
2023-04-29T05:49:14.956Z,8.18
2023-04-29T05:51:57.694Z,8.63
2023-04-29T05:54:40.098Z,8.55
2023-04-29T05:57:23.200Z,8.95
2023-04-29T06:00:07.099Z,8.23
2023-04-29T06:02:59.186Z,8.88
2023-04-29T06:05:44.125Z,8.70
2023-04-29T06:09:03.195Z,8.98
2023-04-29T06:11:49.385Z,8.20
2023-04-29T06:14:31.984Z,8.88
2023-04-29T06:17:15.191Z,8.82
2023-04-29T06:19:58.182Z,8.82
2023-04-29T06:22:40.804Z,9.02
2023-04-29T06:25:23.852Z,9.05
2023-04-29T06:28:08.657Z,8.13
2023-04-29T06:30:53.097Z,9.65
2023-04-29T06:33:35.772Z,8.60
2023-04-29T06:36:18.459Z,9.00
2023-04-29T06:39:23.280Z,8.40
2023-04-29T06:42:24.781Z,10.00
2023-04-29T06:45:28.402Z,8.85
2023-04-29T06:48:17.219Z,9.45
2023-04-29T06:53:48.337Z,9.88
2023-04-29T06:56:30.544Z,9.85
2023-04-29T06:59:13.737Z,9.68
2023-04-29T07:01:56.458Z,9.30
2023-04-29T07:04:39.289Z,9.82
2023-04-29T07:07:21.649Z,9.77
2023-04-29T07:10:04.283Z,10.07
2023-04-29T07:12:46.737Z,9.65
2023-04-29T07:15:34.211Z,10.23
2023-04-29T07:18:16.740Z,9.63
2023-04-29T07:21:02.577Z,9.65
2023-04-29T07:23:48.435Z,9.43
2023-04-29T07:26:31.300Z,9.57
2023-04-29T07:29:14.126Z,9.60
2023-04-29T07:31:57.330Z,9.88
2023-04-29T07:34:40.259Z,9.57
2023-04-29T07:37:22.719Z,9.95
2023-04-29T07:40:05.848Z,9.50
2023-04-29T07:42:48.369Z,9.57
2023-04-29T07:45:30.725Z,10.93
2023-04-29T07:48:13.240Z,9.30
2023-04-29T07:50:56.189Z,10.35
2023-04-29T07:53:38.698Z,9.63
2023-04-29T07:56:21.698Z,10.93
2023-04-29T07:59:04.479Z,10.43
2023-04-29T08:01:47.108Z,9.43
2023-04-29T08:04:29.982Z,9.57
2023-04-29T08:07:20.020Z,9.38
2023-04-29T08:10:07.347Z,9.43
2023-04-29T08:12:52.521Z,10.05
2023-04-29T08:15:35.347Z,9.20
2023-04-29T08:18:17.856Z,9.20
2023-04-29T08:21:01.078Z,9.50
2023-04-29T08:23:43.596Z,8.77
2023-04-29T08:26:26.889Z,10.00
2023-04-29T08:29:09.692Z,9.70
2023-04-29T08:31:52.282Z,10.57
2023-04-29T08:34:36.353Z,8.95
2023-04-29T08:37:19.625Z,10.25
2023-04-29T08:40:02.332Z,10.20
2023-04-29T08:42:47.427Z,11.88
2023-04-29T08:45:34.034Z,11.57
2023-04-29T08:48:17.686Z,11.05
2023-04-29T08:51:01.909Z,12.00
2023-04-29T08:53:47.213Z,11.30
2023-04-29T08:56:31.661Z,11.35
2023-04-29T08:59:18.764Z,13.32
2023-04-29T09:02:01.258Z,10.93
2023-04-29T09:05:09.083Z,11.00
2023-04-29T09:07:52.641Z,10.85
2023-04-29T09:10:39.694Z,10.57
2023-04-29T09:13:27.025Z,10.30
2023-04-29T09:16:15.113Z,10.32
2023-04-29T09:19:00.262Z,10.07
2023-04-29T09:21:56.627Z,10.45
2023-04-29T09:24:40.068Z,10.07
2023-04-29T09:27:29.568Z,9.88
2023-04-29T09:30:16.789Z,13.63
2023-04-29T09:33:09.988Z,9.75
2023-04-29T09:35:52.580Z,10.43
2023-04-29T09:38:36.774Z,10.25
2023-04-29T09:41:20.141Z,9.93
2023-04-29T09:44:10.315Z,9.90
2023-04-29T09:46:57.506Z,8.20
2023-04-29T09:49:42.790Z,9.73
2023-04-29T09:52:25.928Z,7.78
2023-04-29T09:55:09.204Z,7.28
2023-04-29T09:57:51.761Z,6.22
2023-04-29T10:00:35.056Z,5.75
2023-04-29T10:03:17.915Z,6.05
2023-04-29T10:06:01.980Z,5.10
2023-04-29T10:08:46.343Z,5.30
2023-04-29T10:11:29.167Z,5.45
2023-04-29T10:14:18.494Z,5.55
2023-04-29T10:17:31.421Z,6.60
2023-04-29T10:20:19.002Z,5.55
2023-04-29T10:23:02.967Z,5.30
2023-04-29T10:25:48.812Z,6.18
2023-04-29T10:31:17.207Z,7.82
2023-04-29T10:34:00.664Z,8.57
2023-04-29T10:36:43.269Z,9.35
2023-04-29T10:39:53.052Z,8.38
2023-04-29T10:42:43.483Z,7.93
2023-04-29T10:45:35.495Z,7.90
2023-04-29T10:48:21.129Z,8.02
2023-04-29T10:51:11.664Z,8.27
2023-04-29T10:54:06.904Z,8.65
2023-04-29T10:56:50.524Z,8.45
2023-04-29T10:59:33.265Z,8.70
2023-04-29T11:02:16.170Z,8.40
2023-04-29T11:05:10.298Z,9.77
2023-04-29T11:08:23.176Z,9.45
2023-04-29T11:11:09.509Z,9.90
2023-04-29T11:13:53.474Z,9.65
2023-04-29T11:16:41.052Z,8.93
2023-04-29T11:19:33.782Z,8.55
2023-04-29T11:22:22.949Z,8.38
2023-04-29T11:25:09.783Z,8.15
2023-04-29T11:27:55.592Z,7.72
2023-04-29T11:30:38.939Z,8.00
2023-04-29T11:33:21.336Z,10.50
2023-04-29T11:36:04.917Z,7.82
2023-04-29T11:38:47.471Z,8.07
2023-04-29T11:41:31.575Z,7.55
2023-04-29T11:44:14.332Z,8.23
2023-04-29T11:47:09.024Z,8.23
2023-04-29T11:49:51.415Z,8.20
2023-04-29T11:52:36.314Z,8.40
2023-04-29T11:55:19.699Z,7.90
2023-04-29T11:58:04.284Z,8.07
2023-04-29T12:00:48.340Z,10.48
2023-04-29T12:03:32.632Z,8.65
2023-04-29T12:06:15.686Z,7.80
2023-04-29T12:09:01.689Z,8.25
2023-04-29T12:11:44.458Z,8.50
2023-04-29T12:14:27.593Z,8.02
2023-04-29T12:17:10.920Z,8.38
2023-04-29T12:19:53.648Z,8.60
2023-04-29T12:22:36.921Z,8.25
2023-04-29T12:25:22.347Z,9.18
2023-04-29T12:28:06.505Z,9.55
2023-04-29T12:30:54.282Z,8.85
2023-04-29T12:33:36.933Z,8.25
2023-04-29T12:36:19.811Z,8.32
2023-04-29T12:39:02.165Z,8.20
2023-04-29T12:41:45.507Z,8.48
2023-04-29T12:44:35.487Z,8.60
2023-04-29T12:47:18.233Z,8.52
2023-04-29T12:50:01.488Z,9.02
2023-04-29T12:52:44.004Z,8.00
2023-04-29T12:55:26.516Z,7.60
2023-04-29T12:58:09.539Z,7.30
2023-04-29T13:00:51.928Z,7.22
2023-04-29T13:03:34.596Z,7.20
2023-04-29T13:06:17.557Z,6.65
2023-04-29T13:09:00.167Z,6.60
2023-04-29T13:11:42.360Z,7.28
2023-04-29T13:14:25.172Z,6.35
2023-04-29T13:17:07.540Z,6.07
2023-04-29T13:19:52.105Z,6.65
2023-04-29T13:22:34.809Z,6.43
2023-04-29T13:25:17.689Z,6.30
2023-04-29T13:28:00.165Z,6.38
2023-04-29T13:30:42.989Z,5.53
2023-04-29T13:33:26.209Z,7.22
2023-04-29T13:36:09.335Z,6.55
2023-04-29T13:38:55.566Z,7.18
2023-04-29T13:41:44.168Z,7.00
2023-04-29T13:44:34.264Z,6.70
2023-04-29T13:47:31.187Z,7.35
2023-04-29T13:50:50.607Z,6.95
2023-04-29T13:53:51.194Z,7.63
2023-04-29T14:04:39.524Z,7.05
2023-04-29T14:07:22.574Z,6.45
2023-04-29T14:10:06.315Z,8.20
2023-04-29T14:12:49.352Z,7.10
2023-04-29T14:15:32.069Z,7.40
2023-04-29T14:18:14.623Z,7.47
2023-04-29T14:20:59.520Z,7.82
2023-04-29T14:23:41.882Z,8.27
2023-04-29T14:26:28.214Z,9.73
2023-04-29T14:29:11.020Z,9.00
2023-04-29T14:31:53.925Z,10.85
2023-04-29T14:34:36.517Z,15.15
2023-04-29T14:37:22.390Z,9.05
2023-04-29T14:40:05.236Z,10.18
2023-04-29T14:42:47.952Z,10.02
2023-04-29T14:45:30.616Z,9.93
2023-04-29T14:48:13.657Z,8.90
2023-04-29T14:50:56.190Z,9.00
2023-04-29T14:53:39.133Z,9.85
2023-04-29T14:56:22.095Z,9.90
2023-04-29T14:59:06.908Z,9.07
2023-04-29T15:01:50.402Z,8.35
2023-04-29T15:04:33.141Z,7.70
2023-04-29T15:07:16.332Z,8.00
2023-04-29T15:09:58.819Z,8.45
2023-04-29T15:12:41.172Z,9.18
2023-04-29T15:15:24.067Z,11.20
2023-04-29T15:18:08.664Z,9.60
2023-04-29T15:20:52.010Z,7.97
2023-04-29T15:23:34.669Z,8.00
2023-04-29T15:26:17.158Z,8.57
2023-04-29T15:28:59.417Z,15.13
2023-04-29T15:31:42.018Z,11.55
2023-04-29T15:34:24.556Z,11.60
2023-04-29T15:37:07.156Z,9.27
2023-04-29T15:39:49.521Z,7.88
2023-04-29T15:42:32.135Z,7.82
2023-04-29T15:45:14.593Z,9.13
2023-04-29T15:47:57.127Z,7.85
2023-04-29T15:50:39.494Z,7.72
2023-04-29T15:53:23.294Z,6.90
2023-04-29T15:56:06.515Z,6.85
2023-04-29T15:58:49.296Z,7.47
2023-04-29T16:01:32.602Z,7.20
2023-04-29T16:04:16.650Z,7.53
2023-04-29T16:06:58.985Z,7.90
2023-04-29T16:09:41.576Z,7.95
2023-04-29T16:12:23.888Z,8.18
2023-04-29T16:15:08.246Z,7.95
2023-04-29T16:17:52.055Z,8.55
2023-04-29T16:20:34.654Z,8.57
2023-04-29T16:23:16.903Z,8.38
2023-04-29T16:26:01.395Z,9.07
2023-04-29T16:28:43.763Z,9.40
2023-04-29T16:31:26.286Z,9.70
2023-04-29T16:34:08.617Z,9.40
2023-04-29T16:36:51.428Z,9.55
2023-04-29T16:39:34.136Z,9.00
2023-04-29T16:42:16.809Z,9.88
2023-04-29T16:44:59.087Z,9.93
2023-04-29T16:47:42.298Z,10.10
2023-04-29T16:50:24.849Z,10.18
2023-04-29T16:53:07.505Z,10.90
2023-04-29T16:55:53.165Z,10.80
2023-04-29T16:58:35.636Z,10.45
2023-04-29T17:01:20.862Z,11.55
2023-04-29T17:04:04.127Z,10.88
2023-04-29T17:06:46.401Z,10.77
2023-04-29T17:09:28.953Z,11.20
2023-04-29T17:12:11.878Z,12.00
2023-04-29T17:14:55.160Z,12.25
2023-04-29T17:17:37.888Z,13.60
2023-04-29T17:20:21.688Z,11.95
2023-04-29T17:23:04.236Z,12.38
2023-04-29T17:25:46.815Z,12.40
2023-04-29T17:28:29.359Z,12.60
2023-04-29T17:31:12.039Z,13.10
2023-04-29T17:34:05.570Z,12.70
2023-04-29T17:36:48.137Z,14.50
2023-04-29T17:39:31.201Z,13.93
2023-04-29T17:42:13.843Z,14.40
2023-04-29T17:44:56.562Z,14.20
2023-04-29T17:47:39.061Z,15.13
2023-04-29T17:50:21.332Z,14.98
2023-04-29T17:53:04.605Z,15.52
2023-04-29T17:55:47.923Z,19.13
2023-04-29T17:58:30.806Z,17.48
2023-04-29T18:01:14.787Z,17.80
2023-04-29T18:03:57.575Z,20.70
2023-04-29T18:06:40.143Z,36.33
2023-04-29T18:09:22.880Z,37.20
2023-04-29T18:12:05.586Z,28.58
2023-04-29T18:14:48.855Z,24.33
2023-04-29T18:17:32.031Z,24.38
2023-04-29T18:20:14.684Z,24.95
2023-04-29T18:22:57.174Z,28.23
2023-04-29T18:25:40.533Z,24.75
2023-04-29T18:28:25.517Z,20.73
2023-04-29T18:31:08.282Z,22.03
2023-04-29T18:33:50.659Z,23.27
2023-04-29T18:36:33.312Z,22.10
2023-04-29T18:39:15.939Z,20.35
2023-04-29T18:41:58.624Z,21.35
2023-04-29T18:44:40.924Z,20.92
2023-04-29T18:47:23.764Z,21.25
2023-04-29T18:50:06.508Z,20.60
2023-04-29T18:52:49.284Z,23.02
2023-04-29T18:55:31.974Z,22.40
2023-04-29T18:58:14.752Z,22.95
2023-04-29T19:00:59.962Z,22.60
2023-04-29T19:03:42.940Z,23.83
2023-04-29T19:06:25.426Z,23.92
2023-04-29T19:09:08.221Z,23.85
2023-04-29T19:11:50.627Z,24.05
2023-04-29T19:14:34.253Z,134.05
2023-04-29T19:17:17.215Z,39.95
2023-04-29T19:20:01.337Z,27.35
2023-04-29T19:22:43.821Z,49.47
2023-04-29T19:25:26.496Z,51.25
2023-04-29T19:28:10.467Z,20.33
2023-04-29T19:30:53.353Z,17.83
2023-04-29T19:33:35.850Z,15.32
2023-04-29T19:36:18.670Z,13.27
2023-04-29T19:39:02.476Z,12.85
2023-04-29T19:41:45.384Z,15.15
2023-04-29T19:44:27.722Z,15.73
2023-04-29T19:47:10.883Z,21.85
2023-04-29T19:49:53.702Z,24.15
2023-04-29T19:52:36.440Z,23.92
2023-04-29T19:55:19.003Z,21.02
2023-04-29T19:58:01.462Z,12.05
2023-04-29T20:00:43.959Z,16.13
2023-04-29T20:03:27.124Z,15.38
2023-04-29T20:06:10.712Z,14.70
2023-04-29T20:08:53.567Z,13.13
2023-04-29T20:11:36.394Z,13.82
2023-04-29T20:14:19.367Z,12.07
2023-04-29T20:17:02.211Z,12.32
2023-04-29T20:19:44.957Z,11.73
2023-04-29T20:22:27.227Z,14.48
2023-04-29T20:25:10.819Z,14.52
2023-04-29T20:27:54.269Z,15.70
2023-04-29T20:30:37.222Z,22.23
2023-04-29T20:33:19.666Z,29.75
2023-04-29T20:36:06.838Z,31.80
2023-04-29T20:38:49.233Z,43.42
2023-04-29T20:41:32.116Z,53.15
2023-04-29T20:44:15.138Z,18.70
2023-04-29T20:46:58.107Z,10.38
2023-04-29T20:49:40.800Z,14.90
2023-04-29T20:52:49.408Z,13.80
2023-04-29T20:55:31.908Z,17.60
2023-04-29T20:58:16.440Z,27.10
2023-04-29T21:00:59.164Z,13.60
2023-04-29T21:03:41.858Z,18.77
2023-04-29T21:06:26.196Z,18.60
2023-04-29T21:09:11.344Z,20.30
2023-04-29T21:11:53.715Z,14.60
2023-04-29T21:14:38.266Z,16.20
2023-04-29T21:17:21.681Z,19.43
2023-04-29T21:20:04.952Z,34.40
2023-04-29T21:22:47.086Z,25.80
2023-04-29T21:25:29.521Z,16.48
2023-04-29T21:28:11.821Z,32.55
2023-04-29T21:30:54.399Z,29.92
2023-04-29T21:33:36.777Z,31.45
2023-04-29T21:36:19.169Z,22.58
2023-04-29T21:39:02.138Z,16.65
2023-04-29T21:41:45.284Z,18.13
2023-04-29T21:44:27.740Z,23.85
2023-04-29T21:47:10.271Z,33.15
2023-04-29T21:49:54.245Z,22.30
2023-04-29T21:52:36.945Z,33.47
2023-04-29T21:55:19.321Z,34.50
2023-04-29T21:58:01.870Z,29.42
2023-04-29T22:00:58.018Z,28.60
2023-04-29T22:03:40.739Z,37.13
2023-04-29T22:06:24.295Z,38.35
2023-04-29T22:09:07.296Z,34.28
2023-04-29T22:11:49.468Z,34.83
2023-04-29T22:14:31.964Z,39.17
2023-04-29T22:17:14.590Z,38.53
2023-04-29T22:19:57.058Z,50.70
2023-04-29T22:22:39.977Z,40.63
2023-04-29T22:25:22.615Z,40.13
2023-04-29T22:28:05.026Z,40.20
2023-04-29T22:30:47.436Z,39.45
2023-04-29T22:33:29.953Z,41.75
2023-04-29T22:36:12.358Z,42.92
2023-04-29T22:38:54.545Z,42.08
2023-04-29T22:41:37.044Z,30.45
2023-04-29T22:44:19.291Z,39.83
2023-04-29T22:47:01.896Z,37.40
2023-04-29T22:49:44.131Z,41.58
2023-04-29T22:52:27.500Z,38.80
2023-04-29T22:55:09.963Z,32.95
2023-04-29T22:57:52.367Z,35.72
2023-04-29T23:00:34.569Z,32.63
2023-04-29T23:03:17.200Z,30.80
2023-04-29T23:06:00.402Z,36.00
2023-04-29T23:08:44.533Z,32.03
2023-04-29T23:11:26.803Z,37.35
2023-04-29T23:14:09.208Z,35.55
2023-04-29T23:16:52.128Z,33.83
2023-04-29T23:19:34.749Z,35.80
2023-04-29T23:22:17.869Z,38.55
2023-04-29T23:25:00.371Z,36.08
2023-04-29T23:27:42.851Z,36.15
2023-04-29T23:30:25.505Z,36.45
2023-04-29T23:33:07.772Z,37.88
2023-04-29T23:35:51.769Z,35.83
2023-04-29T23:38:34.115Z,37.45
2023-04-29T23:41:17.267Z,37.03
2023-04-29T23:44:02.545Z,37.38
2023-04-29T23:46:45.093Z,36.63
2023-04-29T23:49:28.584Z,35.30
2023-04-29T23:52:11.149Z,33.60
2023-04-29T23:54:53.350Z,33.70
2023-04-29T23:57:36.020Z,29.92
